Latest Weather Observations for Merriwa

IDN60801

Issued at 7:32 am EST Tuesday 1 September 2015 (issued every 30 minutes, with the page automatically refreshed every 10 minutes)

About weather observations | Map of weather stations | Latest weather observations for NSW | Other Formats
Station Details ID: 061287 Name: MERRIWA (ROSCOMMON) Lat: -32.19 Lon: 150.17 Height: 375.0 m
Data from the previous 72 hours. | See also: Recent months at Merriwa
Date/Time
EST
Temp
°C
App
Temp
°C
Dew
Point
Rel
Hum
%
Delta-T
°C
Wind Press
QNH
hPa
Press
MSL
hPa
Rain
since 9 am
mm
Dir
 
Spd
km/h
Gust
km/h
Spd
kts
Gust
kts
01/07:30am 6.3 2.6 4.5 88 0.8 WNW 13 17 7 9 1017.5 1017.6 0.0
01/07:00am 4.3 1.8 3.9 97 0.2 W 6 11 3 6 1017.3 1017.4 0.0
01/06:30am 3.1 -0.2 2.7 97 0.2 NW 9 11 5 6 1016.9 1017.1 0.0
01/06:00am 3.3 -0.7 2.6 95 0.3 WNW 13 17 7 9 1016.6 1016.8 0.0
01/05:30am 3.4 -0.6 3.0 97 0.2 WNW 13 17 7 9 1016.4 1016.6 0.0
01/05:00am 3.1 -0.2 2.4 95 0.3 WNW 9 13 5 7 1016.3 1016.5 0.0
01/04:30am 3.4 -0.3 2.4 93 0.4 NW 11 13 6 7 1016.2 1016.4 0.0
01/04:00am 3.9 -0.5 2.9 93 0.4 NW 15 17 8 9 1016.2 1016.4 0.0
01/03:30am 4.2 0.2 3.0 92 0.5 NW 13 17 7 9 1016.2 1016.4 0.0
01/03:00am 4.1 0.1 2.9 92 0.5 WNW 13 17 7 9 1016.3 1016.5 0.0
01/02:30am 4.4 0.5 3.2 92 0.5 WNW 13 17 7 9 1016.5 1016.7 0.0
01/02:00am 3.9 0.6 2.7 92 0.5 NW 9 13 5 7 1016.8 1017.0 0.0
01/01:30am 4.4 0.8 2.8 89 0.7 NW 11 15 6 8 1017.0 1017.2 0.0
01/01:00am 5.6 1.0 3.6 87 0.9 WNW 17 20 9 11 1017.4 1017.5 0.0
01/12:30am 5.8 1.2 3.8 87 0.9 WNW 17 20 9 11 1017.4 1017.5 0.0
01/12:00am 6.0 1.4 3.8 86 1.0 WNW 17 22 9 12 1017.4 1017.5 0.0
 
Date/Time
EST
Temp
°C
App
Temp
°C
Dew
Point
Rel
Hum
%
Delta-T
°C
Wind Press
QNH
hPa
Press
MSL
hPa
Rain
since 9 am
mm
Dir
 
Spd
km/h
Gust
km/h
Spd
kts
Gust
kts
31/11:30pm 6.2 2.1 4.2 87 0.9 WNW 15 19 8 10 1017.4 1017.5 0.0
31/11:00pm 5.7 2.2 3.7 87 0.9 NW 11 15 6 8 1017.5 1017.6 0.0
31/10:30pm 6.7 3.0 4.4 85 1.0 WNW 13 17 7 9 1017.5 1017.6 0.0
31/10:00pm 7.3 3.3 4.9 85 1.1 WNW 15 19 8 10 1017.6 1017.7 0.0
31/09:30pm 7.3 3.7 4.8 84 1.1 WNW 13 15 7 8 1017.5 1017.6 0.0
31/09:00pm 8.0 4.1 5.3 83 1.2 WNW 15 19 8 10 1017.3 1017.4 0.0
31/08:30pm 8.4 4.5 5.3 81 1.4 WNW 15 17 8 9 1017.0 1017.2 0.0
31/08:00pm 9.1 4.8 5.1 76 1.8 WNW 17 20 9 11 1016.9 1017.1 0.0
31/07:30pm 7.9 4.6 4.5 79 1.5 WNW 11 13 6 7 1016.4 1016.6 0.0
31/07:00pm 8.9 5.6 4.5 74 2.0 WNW 11 15 6 8 1016.1 1016.3 0.0
31/06:30pm 9.2 5.9 4.6 73 2.1 WNW 11 15 6 8 1015.8 1015.9 0.0
31/06:00pm 10.2 6.5 4.6 68 2.6 WNW 13 17 7 9 1015.6 1015.7 0.0
31/05:30pm 12.8 7.8 4.5 57 3.9 WNW 20 26 11 14 1015.2 1015.3 0.0
31/05:00pm 14.4 10.1 5.2 54 4.4 W 17 26 9 14 1015.0 1015.1 0.0
31/04:30pm 15.2 9.9 5.1 51 4.9 WNW 22 30 12 16 1014.7 1014.8 0.0
31/04:00pm 15.8 10.8 6.5 54 4.6 WNW 22 30 12 16 1014.8 1014.9 0.0
31/03:30pm 16.3 11.4 5.3 48 5.4 W 20 30 11 16 1014.8 1014.9 0.0
31/03:00pm 16.8 11.7 6.0 49 5.4 WNW 22 28 12 15 1014.8 1014.9 0.0
31/02:30pm 16.4 11.7 6.0 50 5.1 WNW 20 32 11 17 1015.0 1015.1 0.0
31/02:00pm 16.6 11.5 7.5 55 4.6 NW 24 33 13 18 1015.3 1015.4 0.0
31/01:30pm 16.6 12.5 8.8 60 4.1 NW 20 30 11 16 1015.5 1015.6 0.0
31/01:00pm 15.3 12.0 8.1 62 3.7 WNW 15 24 8 13 1016.0 1016.2 0.0
31/12:30pm 15.2 11.9 8.2 63 3.6 WNW 15 22 8 12 1016.4 1016.6 0.0
31/12:00pm 13.8 10.1 6.4 61 3.6 W 15 22 8 12 1016.7 1016.9 0.0
31/11:30am 13.1 9.6 7.1 67 3.0 WNW 15 22 8 12 1017.1 1017.3 0.0
31/11:00am 12.4 9.4 7.5 72 2.4 WNW 13 19 7 10 1017.6 1017.7 0.0
31/10:30am 10.8 8.1 7.3 79 1.7 WNW 11 15 6 8 1018.0 1018.1 0.0
31/10:02am 9.3 6.8 8.2 93 0.5 WNW 11 17 6 9 1018.2 1018.4 0.0
31/10:00am 9.1 6.1 7.9 92 0.6 WNW 13 17 7 9 1018.3 1018.5 0.0
31/09:30am 7.0 4.1 6.7 98 0.1 WNW 11 15 6 8 1018.4 1018.6 0.0
31/09:00am 5.9 2.9 5.8 99 0.0 WNW 11 15 6 8 1018.5 1018.7 0.0
31/08:30am 4.5 0.8 4.4 99 0.0 W 13 15 7 8 1018.3 1018.5 0.0
31/08:00am 3.7 -0.2 3.6 99 0.0 W 13 17 7 9 1018.2 1018.4 0.0
31/07:37am 3.2 -0.4 3.1 99 0.0 WNW 11 15 6 8 1018.2 1018.4 0.0
31/07:30am 3.4 -0.1 3.3 99 0.0 W 11 15 6 8 1018.2 1018.4 0.0
31/07:00am 2.5 -1.2 2.4 99 0.0 WNW 11 13 6 7 1017.9 1018.0 0.0
31/06:30am 2.3 -1.0 2.2 99 0.0 W 9 15 5 8 1017.8 1017.9 0.0
31/06:00am 2.6 -0.3 2.5 99 0.0 W 7 11 4 6 1017.6 1017.7 0.0
31/05:30am 1.8 -0.3 1.5 98 0.1 WNW 2 6 1 3 1017.4 1017.5 0.0
31/05:00am 3.6 0.4 3.3 98 0.1 WNW 9 11 5 6 1017.3 1017.4 0.0
31/04:30am 3.7 0.6 3.4 98 0.1 W 9 11 5 6 1017.4 1017.5 0.0
31/04:00am 3.7 0.6 3.4 98 0.1 WNW 9 11 5 6 1017.4 1017.5 0.0
31/03:30am 4.0 1.3 3.7 98 0.1 WSW 7 11 4 6 1017.5 1017.6 0.0
31/03:00am 4.4 1.4 4.1 98 0.1 WNW 9 11 5 6 1017.7 1017.8 0.0
31/02:30am 3.3 0.5 3.0 98 0.1 W 7 9 4 5 1017.9 1018.0 0.0
31/02:00am 4.2 2.5 3.9 98 0.1 W 2 6 1 3 1018.2 1018.4 0.0
31/01:30am 4.0 1.3 2.8 92 0.5 W 6 7 3 4 1018.5 1018.7 0.0
31/01:00am 4.9 2.2 3.6 91 0.6 W 7 9 4 5 1018.8 1019.0 0.0
31/12:30am 5.3 2.6 3.8 90 0.6 WNW 7 11 4 6 1018.9 1019.1 0.0
31/12:00am 4.4 1.6 2.1 85 0.9 NW 6 9 3 5 1018.9 1019.1 0.0
 
Date/Time
EST
Temp
°C
App
Temp
°C
Dew
Point
Rel
Hum
%
Delta-T
°C
Wind Press
QNH
hPa
Press
MSL
hPa
Rain
since 9 am
mm
Dir
 
Spd
km/h
Gust
km/h
Spd
kts
Gust
kts
30/11:30pm 6.6 2.8 4.1 84 1.1 NW 13 15 7 8 1018.7 1018.9 0.0
30/11:00pm 7.1 3.4 4.2 82 1.3 NW 13 17 7 9 1018.6 1018.8 0.0
30/10:30pm 6.7 3.0 4.2 84 1.1 NW 13 17 7 9 1018.6 1018.8 0.0
30/10:00pm 6.9 3.1 3.9 81 1.3 NW 13 15 7 8 1018.8 1019.0 0.0
30/09:30pm 8.1 4.9 4.9 80 1.4 WNW 11 15 6 8 1018.7 1018.9 0.0
30/09:00pm 7.3 4.0 4.4 82 1.3 NNW 11 13 6 7 1018.7 1018.9 0.0
30/08:30pm 7.4 4.5 4.4 81 1.3 NW 9 11 5 6 1018.6 1018.8 0.0
30/08:00pm 7.2 4.7 3.6 78 1.6 NNW 6 7 3 4 1018.5 1018.7 0.0
30/07:30pm 6.9 4.3 3.3 78 1.6 N 6 7 3 4 1018.3 1018.5 0.0
30/07:00pm 6.6 3.8 3.2 79 1.5 NNE 7 7 4 4 1018.1 1018.3 0.0
30/06:30pm 8.4 6.0 4.2 75 1.9 N 6 7 3 4 1017.8 1017.9 0.0
30/06:00pm 9.8 7.3 4.8 71 2.3 N 7 7 4 4 1017.6 1017.7 0.0
30/05:30pm 11.5 9.0 4.9 64 3.1 N 7 9 4 5 1017.4 1017.5 0.0
30/05:00pm 14.0 11.5 4.9 54 4.3 N 7 11 4 6 1017.3 1017.4 0.0
30/04:30pm 14.8 11.4 3.9 48 5.1 NNE 11 15 6 8 1017.3 1017.4 0.0
30/04:00pm 15.0 11.5 3.5 46 5.3 N 11 15 6 8 1017.4 1017.5 0.0
30/03:30pm 15.6 12.5 3.4 44 5.7 NNW 9 13 5 7 1017.4 1017.5 0.0
30/03:00pm 15.0 11.3 2.2 42 5.8 N 11 13 6 7 1017.7 1017.8 0.0
30/02:30pm 15.1 11.8 2.3 42 5.8 NE 9 15 5 8 1017.8 1017.9 0.0
30/02:00pm 14.8 12.2 3.3 46 5.3 N 6 9 3 5 1018.0 1018.1 0.0
30/01:30pm 14.6 12.5 3.7 48 5.1 NW 4 9 2 5 1018.3 1018.5 0.0
30/01:00pm 14.3 11.5 3.2 47 5.1 NE 7 13 4 7 1018.7 1018.9 0.0
30/12:30pm 12.9 9.6 2.7 50 4.6 SSE 9 13 5 7 1019.1 1019.3 0.0
30/12:00pm 13.2 10.4 3.0 50 4.6 NE 7 11 4 6 1019.6 1019.8 0.0
30/11:30am 12.1 8.8 2.6 52 4.2 E 9 17 5 9 1020.2 1020.3 0.0
30/11:00am 12.0 9.4 4.2 59 3.6 N 7 11 4 6 1020.5 1020.7 0.0
30/10:30am 10.7 7.9 3.3 60 3.3 WNW 7 11 4 6 1020.8 1021.0 0.0
30/10:00am 9.7 7.0 2.8 62 3.0 WNW 6 11 3 6 1020.8 1021.0 0.0
30/09:30am 8.3 5.1 2.8 68 2.4 WNW 9 15 5 8 1021.0 1021.2 0.0
30/09:00am 7.6 4.3 4.6 81 1.3 W 11 15 6 8 1021.0 1021.2 0.2
30/08:30am 6.1 2.5 2.9 80 1.4 W 11 17 6 9 1020.9 1021.1 0.2
30/08:00am 5.3 0.4 2.3 81 1.2 WNW 17 20 9 11 1020.8 1021.0 0.2
30/07:30am 4.6 0.6 2.8 88 0.7 WNW 13 17 7 9 1020.6 1020.8 0.2
30/07:00am 2.2 -0.6 1.9 98 0.1 NW 6 9 3 5 1020.4 1020.6 0.2
30/06:30am 1.3 -2.3 0.6 95 0.3 WNW 9 11 5 6 1019.9 1020.1 0.2
30/06:00am 1.3 -1.9 0.7 96 0.2 WNW 7 9 4 5 1020.1 1020.2 0.2
30/05:30am 1.8 -1.7 1.1 95 0.3 WNW 9 11 5 6 1019.8 1020.0 0.2
30/05:00am 1.7 -2.3 0.8 94 0.3 NW 11 13 6 7 1019.8 1020.0 0.2
30/04:30am 2.3 -1.6 1.1 92 0.5 NW 11 15 6 8 1019.7 1019.9 0.2
30/04:00am 2.5 -1.8 1.3 92 0.5 NW 13 15 7 8 1019.9 1020.1 0.2
30/03:30am 2.7 -1.5 1.7 93 0.4 WNW 13 17 7 9 1020.2 1020.3 0.2
30/03:00am 2.4 -1.5 1.4 93 0.4 WNW 11 13 6 7 1020.5 1020.7 0.2
30/02:30am 2.9 -0.9 1.7 92 0.5 WNW 11 13 6 7 1020.7 1020.9 0.2
30/02:00am 3.3 0.3 1.8 90 0.6 NW 7 11 4 6 1021.0 1021.2 0.2
30/01:30am 4.2 0.1 2.2 87 0.8 WNW 13 15 7 8 1021.3 1021.5 0.2
30/01:00am 4.3 0.6 2.2 86 0.9 WNW 11 15 6 8 1021.6 1021.8 0.2
30/12:30am 4.0 0.2 1.9 86 0.8 WNW 11 13 6 7 1022.0 1022.2 0.2
30/12:00am 4.9 1.6 2.4 84 1.0 W 9 11 5 6 1021.9 1022.1 0.2
 
Date/Time
EST
Temp
°C
App
Temp
°C
Dew
Point
Rel
Hum
%
Delta-T
°C
Wind Press
QNH
hPa
Press
MSL
hPa
Rain
since 9 am
mm
Dir
 
Spd
km/h
Gust
km/h
Spd
kts
Gust
kts
29/11:30pm 5.5 2.2 2.3 80 1.3 WSW 9 13 5 7 1021.9 1022.1 0.2
29/11:00pm 4.9 1.6 2.6 85 1.0 W 9 13 5 7 1021.9 1022.1 0.2
29/10:30pm 5.2 1.6 2.9 85 1.0 W 11 17 6 9 1021.9 1022.1 0.2
29/10:00pm 4.9 1.6 2.4 84 1.0 W 9 11 5 6 1022.0 1022.2 0.2
29/09:30pm 7.3 3.9 3.9 79 1.5 W 11 13 6 7 1022.0 1022.2 0.2
29/09:00pm 6.4 2.6 3.7 83 1.2 WNW 13 15 7 8 1022.0 1022.2 0.2
29/08:30pm 6.7 3.0 4.2 84 1.1 WNW 13 15 7 8 1021.9 1022.1 0.2
29/08:00pm 6.7 3.4 4.5 86 1.0 NW 11 15 6 8 1021.7 1021.9 0.2
29/07:30pm 6.8 3.1 4.6 86 1.0 NW 13 15 7 8 1021.4 1021.6 0.2
29/07:00pm 7.6 4.4 4.9 83 1.2 NW 11 13 6 7 1021.1 1021.3 0.2
29/06:30pm 7.7 4.0 4.7 81 1.3 NW 13 15 7 8 1020.8 1021.0 0.2
29/06:00pm 8.9 5.2 4.7 75 1.9 WNW 13 15 7 8 1020.6 1020.8 0.2
29/05:30pm 10.6 7.4 4.9 68 2.6 WNW 11 15 6 8 1020.3 1020.4 0.2
29/05:00pm 13.4 9.5 5.3 58 3.9 WNW 15 20 8 11 1020.1 1020.2 0.2
29/04:30pm 14.3 9.5 4.6 52 4.6 WNW 19 26 10 14 1020.1 1020.2 0.2
29/04:00pm 14.6 10.1 4.3 50 4.8 W 17 26 9 14 1020.3 1020.4 0.2
29/03:30pm 14.2 9.2 4.5 52 4.6 W 20 32 11 17 1020.3 1020.4 0.2
29/03:00pm 14.4 8.8 5.5 55 4.3 WNW 24 35 13 19 1020.5 1020.7 0.2
29/02:30pm 14.4 9.2 5.7 56 4.2 WNW 22 35 12 19 1020.7 1020.9 0.2
29/02:00pm 15.2 11.4 7.5 60 3.9 W 17 30 9 16 1021.1 1021.3 0.2
29/01:30pm 13.9 9.3 6.5 61 3.6 W 20 32 11 17 1021.4 1021.6 0.2
29/01:00pm 15.4 10.2 5.6 52 4.8 WSW 22 33 12 18 1021.6 1021.8 0.2
29/12:30pm 15.7 10.7 6.4 54 4.6 WNW 22 32 12 17 1022.0 1022.2 0.2
29/12:00pm 15.7 11.7 8.4 62 3.8 W 19 32 10 17 1022.5 1022.7 0.0
29/11:30am 14.4 10.2 5.7 56 4.2 WNW 17 26 9 14 1023.0 1023.2 0.0
29/11:00am 13.6 9.8 5.7 59 3.8 W 15 24 8 13 1023.4 1023.6 0.0
29/10:30am 13.0 9.3 6.4 64 3.2 W 15 20 8 11 1023.8 1024.0 0.0
29/10:00am 12.3 8.8 7.0 70 2.6 W 15 20 8 11 1024.2 1024.4 0.0
29/09:30am 11.5 7.6 7.0 74 2.2 WNW 17 22 9 12 1024.2 1024.4 0.0
29/09:00am 10.0 5.6 6.5 79 1.7 WNW 19 24 10 13 1024.2 1024.4 0.0
29/08:30am 9.0 4.7 6.8 86 1.0 NW 19 22 10 12 1024.3 1024.5 0.0
29/08:00am 8.2 5.0 7.0 92 0.6 WNW 13 19 7 10 1024.0 1024.2 0.0

Other Formats:

Comma delimited format used in spreadsheet applications
http://www.bom.gov.au/fwo/IDN60801/IDN60801.95754.axf

JavaScript Object Notation format (JSON) in row-major order
http://www.bom.gov.au/fwo/IDN60801/IDN60801.95754.json